sensor_id;sensor_type;location;lat;lon;timestamp;P1;durP1;ratioP1;P2;durP2;ratioP2
13102;SDS011;52970;46.752;17.108;2022-07-29T00:01:17;13.45;;;11.30;;
13102;SDS011;52970;46.752;17.108;2022-07-29T00:03:42;12.13;;;10.55;;
13102;SDS011;52970;46.752;17.108;2022-07-29T00:06:07;11.52;;;10.35;;
13102;SDS011;52970;46.752;17.108;2022-07-29T00:08:32;10.68;;;9.57;;
13102;SDS011;52970;46.752;17.108;2022-07-29T00:10:58;11.95;;;9.90;;
13102;SDS011;52970;46.752;17.108;2022-07-29T00:13:23;10.70;;;9.52;;
13102;SDS011;52970;46.752;17.108;2022-07-29T00:15:48;9.07;;;8.18;;
13102;SDS011;52970;46.752;17.108;2022-07-29T00:18:13;10.82;;;9.85;;
13102;SDS011;52970;46.752;17.108;2022-07-29T00:20:39;10.48;;;9.32;;
13102;SDS011;52970;46.752;17.108;2022-07-29T00:23:04;9.98;;;8.98;;
13102;SDS011;52970;46.752;17.108;2022-07-29T00:25:29;10.80;;;9.57;;
13102;SDS011;52970;46.752;17.108;2022-07-29T00:27:55;12.15;;;10.02;;
13102;SDS011;52970;46.752;17.108;2022-07-29T00:30:20;11.30;;;10.10;;
13102;SDS011;52970;46.752;17.108;2022-07-29T00:32:45;11.60;;;10.40;;
13102;SDS011;52970;46.752;17.108;2022-07-29T00:35:10;10.77;;;9.77;;
13102;SDS011;52970;46.752;17.108;2022-07-29T00:37:54;10.07;;;9.05;;
13102;SDS011;52970;46.752;17.108;2022-07-29T00:40:20;10.20;;;9.20;;
13102;SDS011;52970;46.752;17.108;2022-07-29T00:42:45;9.63;;;8.63;;
13102;SDS011;52970;46.752;17.108;2022-07-29T00:45:11;9.98;;;8.98;;
13102;SDS011;52970;46.752;17.108;2022-07-29T00:47:37;10.80;;;9.88;;
13102;SDS011;52970;46.752;17.108;2022-07-29T00:50:03;10.90;;;8.90;;
13102;SDS011;52970;46.752;17.108;2022-07-29T00:52:28;9.77;;;8.52;;
13102;SDS011;52970;46.752;17.108;2022-07-29T00:54:53;11.57;;;10.38;;
13102;SDS011;52970;46.752;17.108;2022-07-29T00:57:19;10.85;;;9.85;;
13102;SDS011;52970;46.752;17.108;2022-07-29T00:59:44;12.85;;;10.57;;
13102;SDS011;52970;46.752;17.108;2022-07-29T01:02:10;12.85;;;9.93;;
13102;SDS011;52970;46.752;17.108;2022-07-29T01:04:35;11.43;;;10.32;;
13102;SDS011;52970;46.752;17.108;2022-07-29T01:07:01;10.02;;;8.88;;
13102;SDS011;52970;46.752;17.108;2022-07-29T01:09:27;11.45;;;9.48;;
13102;SDS011;52970;46.752;17.108;2022-07-29T01:11:52;10.68;;;9.63;;
13102;SDS011;52970;46.752;17.108;2022-07-29T01:14:18;12.07;;;9.75;;
13102;SDS011;52970;46.752;17.108;2022-07-29T01:16:54;11.63;;;10.05;;
13102;SDS011;52970;46.752;17.108;2022-07-29T01:30:20;11.02;;;9.55;;
13102;SDS011;52970;46.752;17.108;2022-07-29T01:32:47;11.48;;;10.30;;
13102;SDS011;52970;46.752;17.108;2022-07-29T01:35:48;11.90;;;10.50;;
13102;SDS011;52970;46.752;17.108;2022-07-29T01:38:09;11.85;;;10.10;;
13102;SDS011;52970;46.752;17.108;2022-07-29T01:40:38;11.95;;;10.48;;
13102;SDS011;52970;46.752;17.108;2022-07-29T01:43:09;10.68;;;9.68;;
13102;SDS011;52970;46.752;17.108;2022-07-29T01:45:43;11.20;;;10.02;;
13102;SDS011;52970;46.752;17.108;2022-07-29T01:51:08;11.48;;;10.27;;
13102;SDS011;52970;46.752;17.108;2022-07-29T01:53:38;11.82;;;9.48;;
13102;SDS011;52970;46.752;17.108;2022-07-29T01:56:07;9.45;;;8.45;;
13102;SDS011;52970;46.752;17.108;2022-07-29T01:58:33;10.45;;;8.73;;
13102;SDS011;52970;46.752;17.108;2022-07-29T02:01:00;10.05;;;8.90;;
13102;SDS011;52970;46.752;17.108;2022-07-29T02:03:26;9.68;;;8.57;;
13102;SDS011;52970;46.752;17.108;2022-07-29T02:05:52;8.68;;;7.72;;
13102;SDS011;52970;46.752;17.108;2022-07-29T02:08:18;9.95;;;8.02;;
13102;SDS011;52970;46.752;17.108;2022-07-29T02:10:44;8.18;;;7.30;;
13102;SDS011;52970;46.752;17.108;2022-07-29T02:13:11;8.25;;;7.45;;
13102;SDS011;52970;46.752;17.108;2022-07-29T02:15:36;9.20;;;7.32;;
13102;SDS011;52970;46.752;17.108;2022-07-29T02:18:09;7.88;;;6.72;;
13102;SDS011;52970;46.752;17.108;2022-07-29T02:20:36;8.40;;;7.53;;
13102;SDS011;52970;46.752;17.108;2022-07-29T02:23:02;7.88;;;7.18;;
13102;SDS011;52970;46.752;17.108;2022-07-29T02:25:28;8.50;;;7.50;;
13102;SDS011;52970;46.752;17.108;2022-07-29T02:27:54;8.48;;;7.05;;
13102;SDS011;52970;46.752;17.108;2022-07-29T02:30:20;7.72;;;6.95;;
13102;SDS011;52970;46.752;17.108;2022-07-29T02:32:46;7.28;;;6.68;;
13102;SDS011;52970;46.752;17.108;2022-07-29T02:35:13;7.28;;;6.57;;
13102;SDS011;52970;46.752;17.108;2022-07-29T02:37:39;7.28;;;6.57;;
13102;SDS011;52970;46.752;17.108;2022-07-29T02:40:05;7.38;;;6.68;;
13102;SDS011;52970;46.752;17.108;2022-07-29T02:42:33;7.03;;;6.43;;
13102;SDS011;52970;46.752;17.108;2022-07-29T02:44:59;7.28;;;6.68;;
13102;SDS011;52970;46.752;17.108;2022-07-29T02:47:30;6.97;;;6.38;;
13102;SDS011;52970;46.752;17.108;2022-07-29T02:53:04;6.95;;;6.35;;
13102;SDS011;52970;46.752;17.108;2022-07-29T02:55:34;7.05;;;6.45;;
13102;SDS011;52970;46.752;17.108;2022-07-29T03:00:27;7.03;;;6.40;;
13102;SDS011;52970;46.752;17.108;2022-07-29T03:02:54;7.07;;;5.90;;
13102;SDS011;52970;46.752;17.108;2022-07-29T03:05:20;7.38;;;6.68;;
13102;SDS011;52970;46.752;17.108;2022-07-29T03:07:47;6.97;;;6.38;;
13102;SDS011;52970;46.752;17.108;2022-07-29T03:10:14;7.47;;;6.85;;
13102;SDS011;52970;46.752;17.108;2022-07-29T03:12:40;7.25;;;6.60;;
13102;SDS011;52970;46.752;17.108;2022-07-29T03:15:06;7.38;;;6.40;;
13102;SDS011;52970;46.752;17.108;2022-07-29T03:17:33;6.18;;;5.60;;
13102;SDS011;52970;46.752;17.108;2022-07-29T03:19:59;6.50;;;5.90;;
13102;SDS011;52970;46.752;17.108;2022-07-29T03:22:24;5.57;;;5.07;;
13102;SDS011;52970;46.752;17.108;2022-07-29T03:24:50;6.05;;;5.35;;
13102;SDS011;52970;46.752;17.108;2022-07-29T03:27:15;7.57;;;5.72;;
13102;SDS011;52970;46.752;17.108;2022-07-29T03:29:41;6.28;;;5.68;;
13102;SDS011;52970;46.752;17.108;2022-07-29T03:32:06;6.50;;;5.90;;
13102;SDS011;52970;46.752;17.108;2022-07-29T03:34:31;7.82;;;6.03;;
13102;SDS011;52970;46.752;17.108;2022-07-29T03:36:57;6.68;;;5.90;;
13102;SDS011;52970;46.752;17.108;2022-07-29T03:39:23;7.93;;;6.43;;
13102;SDS011;52970;46.752;17.108;2022-07-29T03:41:49;6.75;;;5.95;;
13102;SDS011;52970;46.752;17.108;2022-07-29T03:44:16;6.85;;;6.25;;
13102;SDS011;52970;46.752;17.108;2022-07-29T03:46:43;6.18;;;5.50;;
13102;SDS011;52970;46.752;17.108;2022-07-29T03:49:09;5.70;;;5.20;;
13102;SDS011;52970;46.752;17.108;2022-07-29T03:51:35;6.63;;;5.93;;
13102;SDS011;52970;46.752;17.108;2022-07-29T03:54:01;6.90;;;6.20;;
13102;SDS011;52970;46.752;17.108;2022-07-29T03:56:27;9.55;;;5.75;;
13102;SDS011;52970;46.752;17.108;2022-07-29T03:58:53;6.15;;;5.55;;
13102;SDS011;52970;46.752;17.108;2022-07-29T04:01:19;6.47;;;5.47;;
13102;SDS011;52970;46.752;17.108;2022-07-29T04:03:45;5.90;;;5.40;;
13102;SDS011;52970;46.752;17.108;2022-07-29T04:06:10;6.13;;;5.63;;
13102;SDS011;52970;46.752;17.108;2022-07-29T04:08:36;6.38;;;5.30;;
13102;SDS011;52970;46.752;17.108;2022-07-29T04:11:02;5.50;;;5.10;;
13102;SDS011;52970;46.752;17.108;2022-07-29T04:13:27;5.65;;;4.95;;
13102;SDS011;52970;46.752;17.108;2022-07-29T04:15:52;5.68;;;5.22;;
13102;SDS011;52970;46.752;17.108;2022-07-29T04:18:18;5.90;;;5.40;;
13102;SDS011;52970;46.752;17.108;2022-07-29T04:20:43;8.20;;;5.95;;
13102;SDS011;52970;46.752;17.108;2022-07-29T04:23:09;6.85;;;5.68;;
13102;SDS011;52970;46.752;17.108;2022-07-29T04:25:36;6.13;;;5.55;;
13102;SDS011;52970;46.752;17.108;2022-07-29T04:28:02;5.80;;;5.22;;
13102;SDS011;52970;46.752;17.108;2022-07-29T04:30:27;6.22;;;5.63;;
13102;SDS011;52970;46.752;17.108;2022-07-29T04:32:53;6.10;;;5.50;;
13102;SDS011;52970;46.752;17.108;2022-07-29T04:35:19;6.47;;;5.88;;
13102;SDS011;52970;46.752;17.108;2022-07-29T04:37:44;5.43;;;5.03;;
13102;SDS011;52970;46.752;17.108;2022-07-29T04:40:09;6.50;;;5.80;;
13102;SDS011;52970;46.752;17.108;2022-07-29T04:42:35;6.38;;;5.72;;
13102;SDS011;52970;46.752;17.108;2022-07-29T04:45:00;7.45;;;5.60;;
13102;SDS011;52970;46.752;17.108;2022-07-29T04:47:25;6.07;;;5.57;;
13102;SDS011;52970;46.752;17.108;2022-07-29T04:49:50;5.97;;;5.45;;
13102;SDS011;52970;46.752;17.108;2022-07-29T04:52:16;8.18;;;5.93;;
13102;SDS011;52970;46.752;17.108;2022-07-29T04:54:41;6.15;;;5.47;;
13102;SDS011;52970;46.752;17.108;2022-07-29T04:57:06;6.57;;;5.88;;
13102;SDS011;52970;46.752;17.108;2022-07-29T04:59:32;6.00;;;5.40;;
13102;SDS011;52970;46.752;17.108;2022-07-29T05:01:57;6.15;;;5.60;;
13102;SDS011;52970;46.752;17.108;2022-07-29T05:04:22;7.00;;;5.40;;
13102;SDS011;52970;46.752;17.108;2022-07-29T05:06:48;6.38;;;5.70;;
13102;SDS011;52970;46.752;17.108;2022-07-29T05:09:13;6.43;;;5.72;;
13102;SDS011;52970;46.752;17.108;2022-07-29T05:11:38;7.07;;;5.43;;
13102;SDS011;52970;46.752;17.108;2022-07-29T05:14:03;5.93;;;5.43;;
13102;SDS011;52970;46.752;17.108;2022-07-29T05:16:29;6.50;;;5.53;;
13102;SDS011;52970;46.752;17.108;2022-07-29T05:18:54;5.78;;;5.32;;
13102;SDS011;52970;46.752;17.108;2022-07-29T05:21:19;5.90;;;5.40;;
13102;SDS011;52970;46.752;17.108;2022-07-29T05:23:45;6.57;;;5.32;;
13102;SDS011;52970;46.752;17.108;2022-07-29T05:26:10;9.88;;;6.38;;
13102;SDS011;52970;46.752;17.108;2022-07-29T05:28:35;6.43;;;5.85;;
13102;SDS011;52970;46.752;17.108;2022-07-29T05:31:01;6.10;;;5.60;;
13102;SDS011;52970;46.752;17.108;2022-07-29T05:33:26;6.15;;;5.63;;
13102;SDS011;52970;46.752;17.108;2022-07-29T05:35:55;6.47;;;5.88;;
13102;SDS011;52970;46.752;17.108;2022-07-29T05:38:20;7.57;;;5.95;;
13102;SDS011;52970;46.752;17.108;2022-07-29T05:40:45;6.22;;;5.72;;
13102;SDS011;52970;46.752;17.108;2022-07-29T05:43:10;6.63;;;5.97;;
13102;SDS011;52970;46.752;17.108;2022-07-29T05:45:36;7.28;;;5.85;;
13102;SDS011;52970;46.752;17.108;2022-07-29T05:48:03;6.45;;;5.82;;
13102;SDS011;52970;46.752;17.108;2022-07-29T05:50:28;7.03;;;5.95;;
13102;SDS011;52970;46.752;17.108;2022-07-29T05:52:54;8.50;;;6.55;;
13102;SDS011;52970;46.752;17.108;2022-07-29T05:55:19;6.65;;;6.05;;
13102;SDS011;52970;46.752;17.108;2022-07-29T05:57:45;7.30;;;6.50;;
13102;SDS011;52970;46.752;17.108;2022-07-29T06:00:10;6.80;;;6.10;;
13102;SDS011;52970;46.752;17.108;2022-07-29T06:02:36;6.88;;;6.28;;
13102;SDS011;52970;46.752;17.108;2022-07-29T06:05:01;7.50;;;6.32;;
13102;SDS011;52970;46.752;17.108;2022-07-29T06:07:26;5.90;;;5.43;;
13102;SDS011;52970;46.752;17.108;2022-07-29T06:09:52;6.85;;;5.75;;
13102;SDS011;52970;46.752;17.108;2022-07-29T06:12:17;8.10;;;6.03;;
13102;SDS011;52970;46.752;17.108;2022-07-29T06:14:42;5.95;;;5.43;;
13102;SDS011;52970;46.752;17.108;2022-07-29T06:17:08;6.97;;;5.78;;
13102;SDS011;52970;46.752;17.108;2022-07-29T06:19:34;6.75;;;6.20;;
13102;SDS011;52970;46.752;17.108;2022-07-29T06:21:59;6.30;;;5.70;;
13102;SDS011;52970;46.752;17.108;2022-07-29T06:24:24;9.07;;;5.72;;
13102;SDS011;52970;46.752;17.108;2022-07-29T06:26:49;6.60;;;5.90;;
13102;SDS011;52970;46.752;17.108;2022-07-29T06:29:15;5.97;;;5.47;;
13102;SDS011;52970;46.752;17.108;2022-07-29T06:31:40;6.25;;;5.50;;
13102;SDS011;52970;46.752;17.108;2022-07-29T06:34:06;5.97;;;5.40;;
13102;SDS011;52970;46.752;17.108;2022-07-29T06:36:34;5.68;;;5.07;;
13102;SDS011;52970;46.752;17.108;2022-07-29T06:38:59;5.88;;;5.30;;
13102;SDS011;52970;46.752;17.108;2022-07-29T06:41:24;9.77;;;5.57;;
13102;SDS011;52970;46.752;17.108;2022-07-29T06:43:50;6.85;;;5.35;;
13102;SDS011;52970;46.752;17.108;2022-07-29T06:46:17;8.77;;;5.63;;
13102;SDS011;52970;46.752;17.108;2022-07-29T06:48:43;6.30;;;5.68;;
13102;SDS011;52970;46.752;17.108;2022-07-29T06:51:08;6.05;;;5.45;;
13102;SDS011;52970;46.752;17.108;2022-07-29T06:53:34;10.45;;;5.60;;
13102;SDS011;52970;46.752;17.108;2022-07-29T06:56:00;5.95;;;5.25;;
13102;SDS011;52970;46.752;17.108;2022-07-29T06:58:26;6.20;;;5.30;;
13102;SDS011;52970;46.752;17.108;2022-07-29T07:00:52;10.23;;;5.72;;
13102;SDS011;52970;46.752;17.108;2022-07-29T07:03:17;7.20;;;5.70;;
13102;SDS011;52970;46.752;17.108;2022-07-29T07:05:42;7.55;;;5.20;;
13102;SDS011;52970;46.752;17.108;2022-07-29T07:08:08;4.78;;;4.28;;
13102;SDS011;52970;46.752;17.108;2022-07-29T07:10:33;5.53;;;4.82;;
13102;SDS011;52970;46.752;17.108;2022-07-29T07:12:59;5.68;;;5.03;;
13102;SDS011;52970;46.752;17.108;2022-07-29T07:15:24;5.10;;;4.65;;
13102;SDS011;52970;46.752;17.108;2022-07-29T07:17:50;5.97;;;5.10;;
13102;SDS011;52970;46.752;17.108;2022-07-29T07:20:15;8.25;;;4.90;;
13102;SDS011;52970;46.752;17.108;2022-07-29T07:22:41;5.38;;;4.88;;
13102;SDS011;52970;46.752;17.108;2022-07-29T07:25:06;5.40;;;4.40;;
13102;SDS011;52970;46.752;17.108;2022-07-29T07:27:32;5.53;;;5.03;;
13102;SDS011;52970;46.752;17.108;2022-07-29T07:29:57;6.72;;;5.38;;
13102;SDS011;52970;46.752;17.108;2022-07-29T07:32:22;6.80;;;4.97;;
13102;SDS011;52970;46.752;17.108;2022-07-29T07:34:47;6.82;;;5.15;;
13102;SDS011;52970;46.752;17.108;2022-07-29T07:37:13;5.25;;;4.32;;
13102;SDS011;52970;46.752;17.108;2022-07-29T07:39:39;6.22;;;5.10;;
13102;SDS011;52970;46.752;17.108;2022-07-29T07:42:04;5.75;;;4.70;;
13102;SDS011;52970;46.752;17.108;2022-07-29T07:44:30;10.25;;;5.78;;
13102;SDS011;52970;46.752;17.108;2022-07-29T07:46:55;7.63;;;5.38;;
13102;SDS011;52970;46.752;17.108;2022-07-29T07:49:20;7.60;;;4.88;;
13102;SDS011;52970;46.752;17.108;2022-07-29T07:51:48;5.38;;;4.82;;
13102;SDS011;52970;46.752;17.108;2022-07-29T07:54:13;8.63;;;5.18;;
13102;SDS011;52970;46.752;17.108;2022-07-29T07:56:39;7.50;;;4.50;;
13102;SDS011;52970;46.752;17.108;2022-07-29T07:59:04;6.97;;;4.95;;
13102;SDS011;52970;46.752;17.108;2022-07-29T08:01:29;9.52;;;5.35;;
13102;SDS011;52970;46.752;17.108;2022-07-29T08:03:54;6.03;;;5.10;;
13102;SDS011;52970;46.752;17.108;2022-07-29T08:06:20;6.95;;;5.13;;
13102;SDS011;52970;46.752;17.108;2022-07-29T08:08:45;5.30;;;4.80;;
13102;SDS011;52970;46.752;17.108;2022-07-29T08:11:10;6.22;;;4.53;;
13102;SDS011;52970;46.752;17.108;2022-07-29T08:13:36;7.15;;;4.63;;
13102;SDS011;52970;46.752;17.108;2022-07-29T08:16:02;5.03;;;4.60;;
13102;SDS011;52970;46.752;17.108;2022-07-29T08:18:36;6.30;;;4.60;;
13102;SDS011;52970;46.752;17.108;2022-07-29T08:21:02;4.95;;;4.18;;
13102;SDS011;52970;46.752;17.108;2022-07-29T08:23:27;6.32;;;4.93;;
13102;SDS011;52970;46.752;17.108;2022-07-29T08:25:59;5.68;;;4.43;;
13102;SDS011;52970;46.752;17.108;2022-07-29T08:28:25;7.45;;;4.80;;
13102;SDS011;52970;46.752;17.108;2022-07-29T08:30:50;5.82;;;5.20;;
13102;SDS011;52970;46.752;17.108;2022-07-29T08:33:15;6.75;;;5.22;;
13102;SDS011;52970;46.752;17.108;2022-07-29T08:35:40;8.32;;;4.75;;
13102;SDS011;52970;46.752;17.108;2022-07-29T08:38:06;5.28;;;4.68;;
13102;SDS011;52970;46.752;17.108;2022-07-29T08:40:31;7.57;;;4.88;;
13102;SDS011;52970;46.752;17.108;2022-07-29T08:42:57;5.32;;;4.82;;
13102;SDS011;52970;46.752;17.108;2022-07-29T08:45:22;9.40;;;4.57;;
13102;SDS011;52970;46.752;17.108;2022-07-29T08:47:48;5.35;;;4.57;;
13102;SDS011;52970;46.752;17.108;2022-07-29T08:50:13;5.47;;;4.55;;
13102;SDS011;52970;46.752;17.108;2022-07-29T08:52:40;5.47;;;4.97;;
13102;SDS011;52970;46.752;17.108;2022-07-29T08:55:06;4.72;;;4.20;;
13102;SDS011;52970;46.752;17.108;2022-07-29T08:57:33;4.97;;;3.72;;
13102;SDS011;52970;46.752;17.108;2022-07-29T08:59:59;5.97;;;4.20;;
13102;SDS011;52970;46.752;17.108;2022-07-29T09:02:25;4.80;;;3.92;;
13102;SDS011;52970;46.752;17.108;2022-07-29T09:04:53;7.20;;;4.40;;
13102;SDS011;52970;46.752;17.108;2022-07-29T09:07:18;5.13;;;4.35;;
13102;SDS011;52970;46.752;17.108;2022-07-29T09:09:44;5.80;;;4.20;;
13102;SDS011;52970;46.752;17.108;2022-07-29T09:12:10;7.03;;;4.13;;
13102;SDS011;52970;46.752;17.108;2022-07-29T09:14:37;4.63;;;4.20;;
13102;SDS011;52970;46.752;17.108;2022-07-29T09:17:02;4.95;;;4.03;;
13102;SDS011;52970;46.752;17.108;2022-07-29T09:21:53;8.07;;;4.20;;
13102;SDS011;52970;46.752;17.108;2022-07-29T09:24:26;5.10;;;4.20;;
13102;SDS011;52970;46.752;17.108;2022-07-29T09:26:52;6.28;;;3.75;;
13102;SDS011;52970;46.752;17.108;2022-07-29T09:29:18;6.13;;;3.97;;
13102;SDS011;52970;46.752;17.108;2022-07-29T09:31:44;3.80;;;3.50;;
13102;SDS011;52970;46.752;17.108;2022-07-29T09:34:10;6.82;;;3.90;;
13102;SDS011;52970;46.752;17.108;2022-07-29T09:36:40;4.53;;;3.72;;
13102;SDS011;52970;46.752;17.108;2022-07-29T09:39:06;4.45;;;4.10;;
13102;SDS011;52970;46.752;17.108;2022-07-29T09:41:43;3.85;;;3.55;;
13102;SDS011;52970;46.752;17.108;2022-07-29T09:44:08;6.60;;;4.03;;
13102;SDS011;52970;46.752;17.108;2022-07-29T09:46:34;4.37;;;3.60;;
13102;SDS011;52970;46.752;17.108;2022-07-29T09:49:06;4.63;;;3.85;;
13102;SDS011;52970;46.752;17.108;2022-07-29T09:51:32;4.47;;;3.55;;
13102;SDS011;52970;46.752;17.108;2022-07-29T09:53:57;5.70;;;3.63;;
13102;SDS011;52970;46.752;17.108;2022-07-29T09:56:38;8.65;;;3.83;;
13102;SDS011;52970;46.752;17.108;2022-07-29T09:59:07;7.85;;;3.67;;
13102;SDS011;52970;46.752;17.108;2022-07-29T10:01:33;4.10;;;3.70;;
13102;SDS011;52970;46.752;17.108;2022-07-29T10:03:59;5.65;;;3.72;;
13102;SDS011;52970;46.752;17.108;2022-07-29T10:06:24;5.85;;;3.50;;
13102;SDS011;52970;46.752;17.108;2022-07-29T10:08:49;6.47;;;3.70;;
13102;SDS011;52970;46.752;17.108;2022-07-29T10:11:16;6.50;;;3.70;;
13102;SDS011;52970;46.752;17.108;2022-07-29T10:13:42;4.65;;;4.25;;
13102;SDS011;52970;46.752;17.108;2022-07-29T10:16:07;6.35;;;4.30;;
13102;SDS011;52970;46.752;17.108;2022-07-29T10:18:33;5.80;;;3.97;;
13102;SDS011;52970;46.752;17.108;2022-07-29T10:20:59;4.75;;;4.13;;
13102;SDS011;52970;46.752;17.108;2022-07-29T10:23:29;5.25;;;4.13;;
13102;SDS011;52970;46.752;17.108;2022-07-29T10:26:13;9.07;;;4.25;;
13102;SDS011;52970;46.752;17.108;2022-07-29T10:28:39;4.28;;;3.90;;
13102;SDS011;52970;46.752;17.108;2022-07-29T10:31:05;4.63;;;4.03;;
13102;SDS011;52970;46.752;17.108;2022-07-29T10:36:24;6.07;;;4.07;;
13102;SDS011;52970;46.752;17.108;2022-07-29T10:42:21;4.53;;;3.95;;
13102;SDS011;52970;46.752;17.108;2022-07-29T10:44:49;4.57;;;4.18;;
13102;SDS011;52970;46.752;17.108;2022-07-29T10:47:25;6.03;;;3.80;;
13102;SDS011;52970;46.752;17.108;2022-07-29T10:50:00;5.40;;;4.03;;
13102;SDS011;52970;46.752;17.108;2022-07-29T10:55:16;4.45;;;3.75;;
13102;SDS011;52970;46.752;17.108;2022-07-29T11:00:55;5.50;;;3.67;;
13102;SDS011;52970;46.752;17.108;2022-07-29T11:06:05;4.18;;;3.58;;
13102;SDS011;52970;46.752;17.108;2022-07-29T11:08:30;5.10;;;3.60;;
13102;SDS011;52970;46.752;17.108;2022-07-29T11:16:08;4.95;;;3.45;;
13102;SDS011;52970;46.752;17.108;2022-07-29T11:18:33;3.45;;;3.15;;
13102;SDS011;52970;46.752;17.108;2022-07-29T11:20:58;4.32;;;3.08;;
13102;SDS011;52970;46.752;17.108;2022-07-29T11:23:31;5.32;;;3.47;;
13102;SDS011;52970;46.752;17.108;2022-07-29T11:31:43;4.00;;;3.00;;
13102;SDS011;52970;46.752;17.108;2022-07-29T11:37:13;3.85;;;3.40;;
13102;SDS011;52970;46.752;17.108;2022-07-29T11:39:43;4.55;;;3.45;;
13102;SDS011;52970;46.752;17.108;2022-07-29T11:47:27;3.88;;;3.47;;
13102;SDS011;52970;46.752;17.108;2022-07-29T11:49:54;4.30;;;3.20;;
13102;SDS011;52970;46.752;17.108;2022-07-29T11:52:19;3.63;;;3.33;;
13102;SDS011;52970;46.752;17.108;2022-07-29T11:54:46;5.70;;;3.50;;
13102;SDS011;52970;46.752;17.108;2022-07-29T11:57:12;3.75;;;3.38;;
13102;SDS011;52970;46.752;17.108;2022-07-29T11:59:39;4.07;;;3.60;;
13102;SDS011;52970;46.752;17.108;2022-07-29T12:02:04;4.45;;;3.45;;
13102;SDS011;52970;46.752;17.108;2022-07-29T12:04:30;3.88;;;3.38;;
13102;SDS011;52970;46.752;17.108;2022-07-29T12:06:55;6.00;;;3.53;;
13102;SDS011;52970;46.752;17.108;2022-07-29T12:09:21;3.70;;;3.40;;
13102;SDS011;52970;46.752;17.108;2022-07-29T12:11:47;3.88;;;3.58;;
13102;SDS011;52970;46.752;17.108;2022-07-29T12:14:28;4.55;;;3.28;;
13102;SDS011;52970;46.752;17.108;2022-07-29T12:16:53;4.10;;;3.50;;
13102;SDS011;52970;46.752;17.108;2022-07-29T12:19:19;3.80;;;3.38;;
13102;SDS011;52970;46.752;17.108;2022-07-29T12:21:45;3.88;;;3.53;;
13102;SDS011;52970;46.752;17.108;2022-07-29T12:24:11;4.00;;;3.60;;
13102;SDS011;52970;46.752;17.108;2022-07-29T12:26:36;5.28;;;3.55;;
13102;SDS011;52970;46.752;17.108;2022-07-29T12:29:16;3.78;;;3.47;;
13102;SDS011;52970;46.752;17.108;2022-07-29T12:31:42;4.15;;;3.85;;
13102;SDS011;52970;46.752;17.108;2022-07-29T12:34:08;3.90;;;3.45;;
13102;SDS011;52970;46.752;17.108;2022-07-29T12:36:33;6.50;;;3.67;;
13102;SDS011;52970;46.752;17.108;2022-07-29T12:38:59;4.28;;;3.58;;
13102;SDS011;52970;46.752;17.108;2022-07-29T12:41:24;6.22;;;4.18;;
13102;SDS011;52970;46.752;17.108;2022-07-29T12:43:53;4.45;;;3.70;;
13102;SDS011;52970;46.752;17.108;2022-07-29T12:46:18;4.10;;;3.80;;
13102;SDS011;52970;46.752;17.108;2022-07-29T12:48:44;5.23;;;4.17;;
13102;SDS011;52970;46.752;17.108;2022-07-29T12:51:09;4.13;;;3.83;;
13102;SDS011;52970;46.752;17.108;2022-07-29T12:53:37;4.20;;;3.90;;
13102;SDS011;52970;46.752;17.108;2022-07-29T12:56:03;4.38;;;3.72;;
13102;SDS011;52970;46.752;17.108;2022-07-29T12:58:35;4.85;;;3.78;;
13102;SDS011;52970;46.752;17.108;2022-07-29T13:01:19;4.30;;;4.00;;
13102;SDS011;52970;46.752;17.108;2022-07-29T13:03:46;4.80;;;3.88;;
13102;SDS011;52970;46.752;17.108;2022-07-29T13:09:03;4.15;;;3.33;;
13102;SDS011;52970;46.752;17.108;2022-07-29T13:11:39;4.40;;;3.72;;
13102;SDS011;52970;46.752;17.108;2022-07-29T13:14:06;6.65;;;4.28;;
13102;SDS011;52970;46.752;17.108;2022-07-29T13:16:31;5.57;;;3.83;;
13102;SDS011;52970;46.752;17.108;2022-07-29T13:19:03;6.18;;;3.97;;
13102;SDS011;52970;46.752;17.108;2022-07-29T13:21:28;6.25;;;3.80;;
13102;SDS011;52970;46.752;17.108;2022-07-29T13:23:54;4.60;;;4.00;;
13102;SDS011;52970;46.752;17.108;2022-07-29T13:26:19;4.00;;;3.63;;
13102;SDS011;52970;46.752;17.108;2022-07-29T13:28:44;4.80;;;4.30;;
13102;SDS011;52970;46.752;17.108;2022-07-29T13:31:10;5.20;;;3.72;;
13102;SDS011;52970;46.752;17.108;2022-07-29T13:33:35;4.65;;;4.10;;
13102;SDS011;52970;46.752;17.108;2022-07-29T13:36:00;4.97;;;4.18;;
13102;SDS011;52970;46.752;17.108;2022-07-29T13:38:26;4.70;;;4.20;;
13102;SDS011;52970;46.752;17.108;2022-07-29T13:40:52;6.00;;;4.03;;
13102;SDS011;52970;46.752;17.108;2022-07-29T13:43:17;6.20;;;4.35;;
13102;SDS011;52970;46.752;17.108;2022-07-29T13:45:42;4.50;;;4.10;;
13102;SDS011;52970;46.752;17.108;2022-07-29T13:48:07;4.67;;;3.93;;
13102;SDS011;52970;46.752;17.108;2022-07-29T13:50:33;5.50;;;4.10;;
13102;SDS011;52970;46.752;17.108;2022-07-29T13:52:58;4.10;;;3.80;;
13102;SDS011;52970;46.752;17.108;2022-07-29T13:55:23;4.28;;;3.88;;
13102;SDS011;52970;46.752;17.108;2022-07-29T13:57:49;5.03;;;3.88;;
13102;SDS011;52970;46.752;17.108;2022-07-29T14:00:14;5.10;;;4.20;;
13102;SDS011;52970;46.752;17.108;2022-07-29T14:02:40;4.60;;;4.07;;
13102;SDS011;52970;46.752;17.108;2022-07-29T14:05:06;4.65;;;4.10;;
13102;SDS011;52970;46.752;17.108;2022-07-29T14:07:31;4.75;;;4.07;;
13102;SDS011;52970;46.752;17.108;2022-07-29T14:09:56;5.88;;;4.30;;
13102;SDS011;52970;46.752;17.108;2022-07-29T14:12:22;5.85;;;3.70;;
13102;SDS011;52970;46.752;17.108;2022-07-29T14:14:47;4.30;;;3.90;;
13102;SDS011;52970;46.752;17.108;2022-07-29T14:17:13;4.45;;;4.05;;
13102;SDS011;52970;46.752;17.108;2022-07-29T14:19:38;4.53;;;3.95;;
13102;SDS011;52970;46.752;17.108;2022-07-29T14:22:04;4.53;;;4.13;;
13102;SDS011;52970;46.752;17.108;2022-07-29T14:24:30;4.55;;;3.95;;
13102;SDS011;52970;46.752;17.108;2022-07-29T14:26:56;4.35;;;3.90;;
13102;SDS011;52970;46.752;17.108;2022-07-29T14:29:21;4.57;;;4.10;;
13102;SDS011;52970;46.752;17.108;2022-07-29T14:31:46;4.20;;;3.83;;
13102;SDS011;52970;46.752;17.108;2022-07-29T14:34:12;4.43;;;3.70;;
13102;SDS011;52970;46.752;17.108;2022-07-29T14:36:37;6.63;;;3.92;;
13102;SDS011;52970;46.752;17.108;2022-07-29T14:39:02;5.70;;;4.30;;
13102;SDS011;52970;46.752;17.108;2022-07-29T14:41:28;5.55;;;4.50;;
13102;SDS011;52970;46.752;17.108;2022-07-29T14:43:53;4.57;;;4.18;;
13102;SDS011;52970;46.752;17.108;2022-07-29T14:46:19;4.60;;;4.13;;
13102;SDS011;52970;46.752;17.108;2022-07-29T14:48:44;5.93;;;4.18;;
13102;SDS011;52970;46.752;17.108;2022-07-29T14:51:09;5.63;;;4.00;;
13102;SDS011;52970;46.752;17.108;2022-07-29T14:53:35;4.60;;;4.15;;
13102;SDS011;52970;46.752;17.108;2022-07-29T14:56:00;4.13;;;3.83;;
13102;SDS011;52970;46.752;17.108;2022-07-29T14:58:26;4.30;;;3.90;;
13102;SDS011;52970;46.752;17.108;2022-07-29T15:00:51;4.82;;;4.30;;
13102;SDS011;52970;46.752;17.108;2022-07-29T15:03:17;6.15;;;4.35;;
13102;SDS011;52970;46.752;17.108;2022-07-29T15:05:42;6.13;;;4.05;;
13102;SDS011;52970;46.752;17.108;2022-07-29T15:08:08;5.38;;;4.13;;
13102;SDS011;52970;46.752;17.108;2022-07-29T15:10:33;4.47;;;4.03;;
13102;SDS011;52970;46.752;17.108;2022-07-29T15:12:58;4.60;;;4.20;;
13102;SDS011;52970;46.752;17.108;2022-07-29T15:15:24;4.63;;;3.83;;
13102;SDS011;52970;46.752;17.108;2022-07-29T15:17:49;4.45;;;4.05;;
13102;SDS011;52970;46.752;17.108;2022-07-29T15:20:15;4.57;;;4.18;;
13102;SDS011;52970;46.752;17.108;2022-07-29T15:22:41;4.47;;;3.97;;
13102;SDS011;52970;46.752;17.108;2022-07-29T15:25:07;4.50;;;3.72;;
13102;SDS011;52970;46.752;17.108;2022-07-29T15:27:33;4.35;;;4.05;;